sensor_id;sensor_type;location;lat;lon;timestamp;temperature;humidity
17128;DHT22;8679;50.842;4.322;2023-05-28T00:01:34;15.80;99.90
17128;DHT22;8679;50.842;4.322;2023-05-28T00:03:59;15.80;99.90
17128;DHT22;8679;50.842;4.322;2023-05-28T00:06:25;15.70;99.90
17128;DHT22;8679;50.842;4.322;2023-05-28T00:08:50;15.70;99.90
17128;DHT22;8679;50.842;4.322;2023-05-28T00:11:16;15.60;99.90
17128;DHT22;8679;50.842;4.322;2023-05-28T00:13:42;15.60;99.90
17128;DHT22;8679;50.842;4.322;2023-05-28T00:16:07;15.60;99.90
17128;DHT22;8679;50.842;4.322;2023-05-28T00:18:33;15.60;99.90
17128;DHT22;8679;50.842;4.322;2023-05-28T00:20:59;15.50;99.90
17128;DHT22;8679;50.842;4.322;2023-05-28T00:23:26;15.50;99.90
17128;DHT22;8679;50.842;4.322;2023-05-28T00:25:51;15.40;99.90
17128;DHT22;8679;50.842;4.322;2023-05-28T00:28:17;15.40;99.90
17128;DHT22;8679;50.842;4.322;2023-05-28T00:30:43;15.40;99.90
17128;DHT22;8679;50.842;4.322;2023-05-28T00:33:08;15.40;99.90
17128;DHT22;8679;50.842;4.322;2023-05-28T00:35:34;15.40;99.90
17128;DHT22;8679;50.842;4.322;2023-05-28T00:38:00;15.30;99.90
17128;DHT22;8679;50.842;4.322;2023-05-28T00:40:26;15.20;99.90
17128;DHT22;8679;50.842;4.322;2023-05-28T00:42:51;15.30;99.90
17128;DHT22;8679;50.842;4.322;2023-05-28T00:45:18;15.30;99.90
17128;DHT22;8679;50.842;4.322;2023-05-28T00:47:44;15.20;99.90
17128;DHT22;8679;50.842;4.322;2023-05-28T00:50:10;15.20;99.90
17128;DHT22;8679;50.842;4.322;2023-05-28T00:52:38;15.20;99.90
17128;DHT22;8679;50.842;4.322;2023-05-28T00:55:15;15.10;99.90
17128;DHT22;8679;50.842;4.322;2023-05-28T00:57:42;15.10;99.90
17128;DHT22;8679;50.842;4.322;2023-05-28T01:00:09;15.10;99.90
17128;DHT22;8679;50.842;4.322;2023-05-28T01:02:35;15.10;99.90
17128;DHT22;8679;50.842;4.322;2023-05-28T01:05:01;15.00;99.90
17128;DHT22;8679;50.842;4.322;2023-05-28T01:07:27;15.00;99.90
17128;DHT22;8679;50.842;4.322;2023-05-28T01:09:53;15.00;99.90
17128;DHT22;8679;50.842;4.322;2023-05-28T01:12:20;15.00;99.90
17128;DHT22;8679;50.842;4.322;2023-05-28T01:14:47;14.90;99.90
17128;DHT22;8679;50.842;4.322;2023-05-28T01:17:13;14.90;99.90
17128;DHT22;8679;50.842;4.322;2023-05-28T01:19:40;14.90;99.90
17128;DHT22;8679;50.842;4.322;2023-05-28T01:22:07;14.80;99.90
17128;DHT22;8679;50.842;4.322;2023-05-28T01:24:38;14.80;99.90
17128;DHT22;8679;50.842;4.322;2023-05-28T01:27:05;14.80;99.90
17128;DHT22;8679;50.842;4.322;2023-05-28T01:29:31;14.80;99.90
17128;DHT22;8679;50.842;4.322;2023-05-28T01:31:57;14.80;99.90
17128;DHT22;8679;50.842;4.322;2023-05-28T01:34:24;14.80;99.90
17128;DHT22;8679;50.842;4.322;2023-05-28T01:36:58;14.70;99.90
17128;DHT22;8679;50.842;4.322;2023-05-28T01:39:27;14.70;99.90
17128;DHT22;8679;50.842;4.322;2023-05-28T01:41:55;14.70;99.90
17128;DHT22;8679;50.842;4.322;2023-05-28T01:44:22;14.70;99.90
17128;DHT22;8679;50.842;4.322;2023-05-28T01:46:49;14.60;99.90
17128;DHT22;8679;50.842;4.322;2023-05-28T01:49:19;14.60;99.90
17128;DHT22;8679;50.842;4.322;2023-05-28T01:51:45;14.60;99.90
17128;DHT22;8679;50.842;4.322;2023-05-28T01:54:11;14.50;99.90
17128;DHT22;8679;50.842;4.322;2023-05-28T01:56:36;14.50;99.90
17128;DHT22;8679;50.842;4.322;2023-05-28T01:59:02;14.50;99.90
17128;DHT22;8679;50.842;4.322;2023-05-28T02:01:32;14.50;99.90
17128;DHT22;8679;50.842;4.322;2023-05-28T02:03:59;14.40;99.90
17128;DHT22;8679;50.842;4.322;2023-05-28T02:06:29;14.40;99.90
17128;DHT22;8679;50.842;4.322;2023-05-28T02:08:55;14.40;99.90
17128;DHT22;8679;50.842;4.322;2023-05-28T02:11:21;14.30;99.90
17128;DHT22;8679;50.842;4.322;2023-05-28T02:13:47;14.30;99.90
17128;DHT22;8679;50.842;4.322;2023-05-28T02:16:14;14.20;99.90
17128;DHT22;8679;50.842;4.322;2023-05-28T02:18:43;14.20;99.90
17128;DHT22;8679;50.842;4.322;2023-05-28T02:21:10;14.20;99.90
17128;DHT22;8679;50.842;4.322;2023-05-28T02:23:42;14.20;99.90
17128;DHT22;8679;50.842;4.322;2023-05-28T02:26:08;14.10;99.90
17128;DHT22;8679;50.842;4.322;2023-05-28T02:28:33;14.10;99.90
17128;DHT22;8679;50.842;4.322;2023-05-28T02:30:59;14.10;99.90
17128;DHT22;8679;50.842;4.322;2023-05-28T02:33:25;14.10;99.90
17128;DHT22;8679;50.842;4.322;2023-05-28T02:35:51;14.00;99.90
17128;DHT22;8679;50.842;4.322;2023-05-28T02:38:17;14.00;99.90
17128;DHT22;8679;50.842;4.322;2023-05-28T02:40:43;14.00;99.90
17128;DHT22;8679;50.842;4.322;2023-05-28T02:43:09;14.00;99.90
17128;DHT22;8679;50.842;4.322;2023-05-28T02:45:34;14.00;99.90
17128;DHT22;8679;50.842;4.322;2023-05-28T02:48:00;13.90;99.90
17128;DHT22;8679;50.842;4.322;2023-05-28T02:50:26;13.90;99.90
17128;DHT22;8679;50.842;4.322;2023-05-28T02:52:51;13.90;99.90
17128;DHT22;8679;50.842;4.322;2023-05-28T02:55:17;13.80;99.90
17128;DHT22;8679;50.842;4.322;2023-05-28T02:57:43;13.80;99.90
17128;DHT22;8679;50.842;4.322;2023-05-28T03:00:09;13.70;99.90
17128;DHT22;8679;50.842;4.322;2023-05-28T03:02:35;13.80;99.90
17128;DHT22;8679;50.842;4.322;2023-05-28T03:05:01;13.70;99.90
17128;DHT22;8679;50.842;4.322;2023-05-28T03:07:30;13.70;99.90
17128;DHT22;8679;50.842;4.322;2023-05-28T03:09:59;13.60;99.90
17128;DHT22;8679;50.842;4.322;2023-05-28T03:12:24;13.60;99.90
17128;DHT22;8679;50.842;4.322;2023-05-28T03:14:50;13.60;99.90
17128;DHT22;8679;50.842;4.322;2023-05-28T03:17:16;13.50;99.90
17128;DHT22;8679;50.842;4.322;2023-05-28T03:19:42;13.50;99.90
17128;DHT22;8679;50.842;4.322;2023-05-28T03:22:08;13.50;99.90
17128;DHT22;8679;50.842;4.322;2023-05-28T03:24:33;13.50;99.90
17128;DHT22;8679;50.842;4.322;2023-05-28T03:27:01;13.50;99.90
17128;DHT22;8679;50.842;4.322;2023-05-28T03:29:27;13.40;99.90
17128;DHT22;8679;50.842;4.322;2023-05-28T03:31:52;13.40;99.90
17128;DHT22;8679;50.842;4.322;2023-05-28T03:34:18;13.40;99.90
17128;DHT22;8679;50.842;4.322;2023-05-28T03:36:44;13.40;99.90
17128;DHT22;8679;50.842;4.322;2023-05-28T03:39:10;13.40;99.90
17128;DHT22;8679;50.842;4.322;2023-05-28T03:41:36;13.40;99.90
17128;DHT22;8679;50.842;4.322;2023-05-28T03:44:03;13.40;99.90
17128;DHT22;8679;50.842;4.322;2023-05-28T03:46:29;13.40;99.90
17128;DHT22;8679;50.842;4.322;2023-05-28T03:48:55;13.40;99.90
17128;DHT22;8679;50.842;4.322;2023-05-28T03:51:21;13.30;99.90
17128;DHT22;8679;50.842;4.322;2023-05-28T03:53:49;13.30;99.90
17128;DHT22;8679;50.842;4.322;2023-05-28T03:56:16;13.30;99.90
17128;DHT22;8679;50.842;4.322;2023-05-28T03:58:42;13.30;99.90
17128;DHT22;8679;50.842;4.322;2023-05-28T04:01:08;13.30;99.90
17128;DHT22;8679;50.842;4.322;2023-05-28T04:03:34;13.30;99.90
17128;DHT22;8679;50.842;4.322;2023-05-28T04:06:00;13.30;99.90
17128;DHT22;8679;50.842;4.322;2023-05-28T04:08:26;13.30;99.90
17128;DHT22;8679;50.842;4.322;2023-05-28T04:10:52;13.30;99.90
17128;DHT22;8679;50.842;4.322;2023-05-28T04:13:18;13.30;99.90
17128;DHT22;8679;50.842;4.322;2023-05-28T04:15:43;13.30;99.90
17128;DHT22;8679;50.842;4.322;2023-05-28T04:18:09;13.30;99.90
17128;DHT22;8679;50.842;4.322;2023-05-28T04:20:35;13.40;99.90
17128;DHT22;8679;50.842;4.322;2023-05-28T04:23:03;13.40;99.90
17128;DHT22;8679;50.842;4.322;2023-05-28T04:25:29;13.40;99.90
17128;DHT22;8679;50.842;4.322;2023-05-28T04:27:55;13.40;99.90
17128;DHT22;8679;50.842;4.322;2023-05-28T04:30:22;13.40;99.90
17128;DHT22;8679;50.842;4.322;2023-05-28T04:32:49;13.50;99.90
17128;DHT22;8679;50.842;4.322;2023-05-28T04:35:18;13.60;99.90
17128;DHT22;8679;50.842;4.322;2023-05-28T04:37:44;13.50;99.90
17128;DHT22;8679;50.842;4.322;2023-05-28T04:40:11;13.50;99.90
17128;DHT22;8679;50.842;4.322;2023-05-28T04:42:40;13.50;99.90
17128;DHT22;8679;50.842;4.322;2023-05-28T04:45:10;13.50;99.90
17128;DHT22;8679;50.842;4.322;2023-05-28T04:47:36;13.60;99.90
17128;DHT22;8679;50.842;4.322;2023-05-28T04:50:03;13.60;99.90
17128;DHT22;8679;50.842;4.322;2023-05-28T04:52:30;13.60;99.90
17128;DHT22;8679;50.842;4.322;2023-05-28T04:55:01;13.60;99.90
17128;DHT22;8679;50.842;4.322;2023-05-28T04:57:27;13.70;99.90
17128;DHT22;8679;50.842;4.322;2023-05-28T04:59:52;13.70;99.90
17128;DHT22;8679;50.842;4.322;2023-05-28T05:02:18;13.70;99.90
17128;DHT22;8679;50.842;4.322;2023-05-28T05:04:44;13.80;99.90
17128;DHT22;8679;50.842;4.322;2023-05-28T05:07:11;13.80;99.90
17128;DHT22;8679;50.842;4.322;2023-05-28T05:09:37;13.80;99.90
17128;DHT22;8679;50.842;4.322;2023-05-28T05:12:02;13.80;99.90
17128;DHT22;8679;50.842;4.322;2023-05-28T05:14:28;13.90;99.90
17128;DHT22;8679;50.842;4.322;2023-05-28T05:16:54;13.90;99.90
17128;DHT22;8679;50.842;4.322;2023-05-28T05:19:19;13.90;99.90
17128;DHT22;8679;50.842;4.322;2023-05-28T05:21:45;14.00;99.90
17128;DHT22;8679;50.842;4.322;2023-05-28T05:24:11;14.00;99.90
17128;DHT22;8679;50.842;4.322;2023-05-28T05:26:36;14.10;99.90
17128;DHT22;8679;50.842;4.322;2023-05-28T05:29:02;14.10;99.90
17128;DHT22;8679;50.842;4.322;2023-05-28T05:31:28;14.20;99.90
17128;DHT22;8679;50.842;4.322;2023-05-28T05:33:53;14.20;99.90
17128;DHT22;8679;50.842;4.322;2023-05-28T05:36:19;14.30;99.90
17128;DHT22;8679;50.842;4.322;2023-05-28T05:38:44;14.30;99.90
17128;DHT22;8679;50.842;4.322;2023-05-28T05:41:11;14.30;99.90
17128;DHT22;8679;50.842;4.322;2023-05-28T05:43:37;14.40;99.90
17128;DHT22;8679;50.842;4.322;2023-05-28T05:46:02;14.40;99.90
17128;DHT22;8679;50.842;4.322;2023-05-28T05:48:28;14.50;99.90
17128;DHT22;8679;50.842;4.322;2023-05-28T05:50:54;14.50;99.90
17128;DHT22;8679;50.842;4.322;2023-05-28T05:53:21;14.60;99.90
17128;DHT22;8679;50.842;4.322;2023-05-28T05:55:47;14.60;99.90
17128;DHT22;8679;50.842;4.322;2023-05-28T05:58:13;14.70;99.90
17128;DHT22;8679;50.842;4.322;2023-05-28T06:00:40;14.70;99.90
17128;DHT22;8679;50.842;4.322;2023-05-28T06:03:06;14.80;99.90
17128;DHT22;8679;50.842;4.322;2023-05-28T06:05:33;14.80;99.90
17128;DHT22;8679;50.842;4.322;2023-05-28T06:07:58;14.90;99.90
17128;DHT22;8679;50.842;4.322;2023-05-28T06:10:24;15.00;99.90
17128;DHT22;8679;50.842;4.322;2023-05-28T06:12:50;15.00;99.90
17128;DHT22;8679;50.842;4.322;2023-05-28T06:15:16;15.10;99.90
17128;DHT22;8679;50.842;4.322;2023-05-28T06:17:42;15.20;99.90
17128;DHT22;8679;50.842;4.322;2023-05-28T06:20:09;15.20;99.90
17128;DHT22;8679;50.842;4.322;2023-05-28T06:22:35;15.30;99.90
17128;DHT22;8679;50.842;4.322;2023-05-28T06:25:01;15.30;99.90
17128;DHT22;8679;50.842;4.322;2023-05-28T06:27:28;15.40;99.90
17128;DHT22;8679;50.842;4.322;2023-05-28T06:29:54;15.40;99.90
17128;DHT22;8679;50.842;4.322;2023-05-28T06:32:20;15.50;99.90
17128;DHT22;8679;50.842;4.322;2023-05-28T06:34:45;15.60;99.90
17128;DHT22;8679;50.842;4.322;2023-05-28T06:37:11;15.60;99.90
17128;DHT22;8679;50.842;4.322;2023-05-28T06:39:37;15.70;99.90
17128;DHT22;8679;50.842;4.322;2023-05-28T06:42:03;15.70;99.90
17128;DHT22;8679;50.842;4.322;2023-05-28T06:44:29;15.80;99.90
17128;DHT22;8679;50.842;4.322;2023-05-28T06:46:54;15.90;99.90
17128;DHT22;8679;50.842;4.322;2023-05-28T06:49:20;15.90;99.90
17128;DHT22;8679;50.842;4.322;2023-05-28T06:51:46;16.00;99.90
17128;DHT22;8679;50.842;4.322;2023-05-28T06:54:11;16.10;99.90
17128;DHT22;8679;50.842;4.322;2023-05-28T06:56:37;16.20;99.90
17128;DHT22;8679;50.842;4.322;2023-05-28T06:59:03;16.30;99.90
17128;DHT22;8679;50.842;4.322;2023-05-28T07:01:28;16.30;99.90
17128;DHT22;8679;50.842;4.322;2023-05-28T07:03:54;16.40;99.90
17128;DHT22;8679;50.842;4.322;2023-05-28T07:06:20;16.50;99.90
17128;DHT22;8679;50.842;4.322;2023-05-28T07:08:46;16.60;99.90
17128;DHT22;8679;50.842;4.322;2023-05-28T07:11:12;16.70;99.90
17128;DHT22;8679;50.842;4.322;2023-05-28T07:13:39;16.70;99.90
17128;DHT22;8679;50.842;4.322;2023-05-28T07:16:06;16.80;99.90
17128;DHT22;8679;50.842;4.322;2023-05-28T07:18:32;16.90;99.90
17128;DHT22;8679;50.842;4.322;2023-05-28T07:20:57;17.00;99.90
17128;DHT22;8679;50.842;4.322;2023-05-28T07:23:23;17.10;99.90
17128;DHT22;8679;50.842;4.322;2023-05-28T07:25:49;17.20;99.90
17128;DHT22;8679;50.842;4.322;2023-05-28T07:28:15;17.30;99.90
17128;DHT22;8679;50.842;4.322;2023-05-28T07:30:41;17.30;99.90
17128;DHT22;8679;50.842;4.322;2023-05-28T07:33:07;17.30;99.90
17128;DHT22;8679;50.842;4.322;2023-05-28T07:35:33;17.40;99.90
17128;DHT22;8679;50.842;4.322;2023-05-28T07:37:59;17.50;99.90
17128;DHT22;8679;50.842;4.322;2023-05-28T07:40:24;17.60;99.90
17128;DHT22;8679;50.842;4.322;2023-05-28T07:42:50;17.60;99.90
17128;DHT22;8679;50.842;4.322;2023-05-28T07:45:16;17.70;99.90
17128;DHT22;8679;50.842;4.322;2023-05-28T07:47:41;17.80;99.90
17128;DHT22;8679;50.842;4.322;2023-05-28T07:50:07;17.90;99.90
17128;DHT22;8679;50.842;4.322;2023-05-28T07:52:33;17.90;99.90
17128;DHT22;8679;50.842;4.322;2023-05-28T07:54:59;18.00;99.90
17128;DHT22;8679;50.842;4.322;2023-05-28T07:57:25;18.00;99.90
17128;DHT22;8679;50.842;4.322;2023-05-28T07:59:51;18.10;99.90
17128;DHT22;8679;50.842;4.322;2023-05-28T08:02:17;18.10;99.90
17128;DHT22;8679;50.842;4.322;2023-05-28T08:04:43;18.10;99.90
17128;DHT22;8679;50.842;4.322;2023-05-28T08:07:09;18.30;99.90
17128;DHT22;8679;50.842;4.322;2023-05-28T08:09:39;18.30;99.90
17128;DHT22;8679;50.842;4.322;2023-05-28T08:12:06;18.50;99.90
17128;DHT22;8679;50.842;4.322;2023-05-28T08:14:32;18.50;99.90
17128;DHT22;8679;50.842;4.322;2023-05-28T08:16:57;18.70;99.90
17128;DHT22;8679;50.842;4.322;2023-05-28T08:19:23;18.80;99.90
17128;DHT22;8679;50.842;4.322;2023-05-28T08:21:49;18.90;99.90
17128;DHT22;8679;50.842;4.322;2023-05-28T08:24:15;19.00;99.90
17128;DHT22;8679;50.842;4.322;2023-05-28T08:26:42;19.00;99.90
17128;DHT22;8679;50.842;4.322;2023-05-28T08:29:08;19.10;99.90
17128;DHT22;8679;50.842;4.322;2023-05-28T08:31:34;19.10;99.90
17128;DHT22;8679;50.842;4.322;2023-05-28T08:34:00;19.20;99.90
17128;DHT22;8679;50.842;4.322;2023-05-28T08:36:26;19.30;99.90
17128;DHT22;8679;50.842;4.322;2023-05-28T08:38:52;19.30;99.90
17128;DHT22;8679;50.842;4.322;2023-05-28T08:41:18;19.50;99.90
17128;DHT22;8679;50.842;4.322;2023-05-28T08:43:44;19.60;99.90
17128;DHT22;8679;50.842;4.322;2023-05-28T08:46:11;19.70;99.90
17128;DHT22;8679;50.842;4.322;2023-05-28T08:48:40;19.80;99.90
17128;DHT22;8679;50.842;4.322;2023-05-28T08:51:06;20.00;99.90
17128;DHT22;8679;50.842;4.322;2023-05-28T08:53:40;20.10;99.90
17128;DHT22;8679;50.842;4.322;2023-05-28T08:56:06;20.20;99.90
17128;DHT22;8679;50.842;4.322;2023-05-28T08:58:34;20.30;99.90
17128;DHT22;8679;50.842;4.322;2023-05-28T09:01:04;20.30;99.90
17128;DHT22;8679;50.842;4.322;2023-05-28T09:03:38;20.30;99.90
17128;DHT22;8679;50.842;4.322;2023-05-28T09:06:08;20.40;99.90
17128;DHT22;8679;50.842;4.322;2023-05-28T09:08:34;20.40;99.90
17128;DHT22;8679;50.842;4.322;2023-05-28T09:11:11;20.60;99.90
17128;DHT22;8679;50.842;4.322;2023-05-28T09:13:44;20.60;99.90
17128;DHT22;8679;50.842;4.322;2023-05-28T09:16:11;20.70;99.90
17128;DHT22;8679;50.842;4.322;2023-05-28T09:18:37;20.80;99.90
17128;DHT22;8679;50.842;4.322;2023-05-28T09:21:09;20.90;99.90
17128;DHT22;8679;50.842;4.322;2023-05-28T09:23:37;21.00;99.90
17128;DHT22;8679;50.842;4.322;2023-05-28T09:26:07;21.00;99.90
17128;DHT22;8679;50.842;4.322;2023-05-28T09:28:34;20.90;99.90
17128;DHT22;8679;50.842;4.322;2023-05-28T09:31:04;21.00;99.90
17128;DHT22;8679;50.842;4.322;2023-05-28T09:33:30;21.10;99.90
17128;DHT22;8679;50.842;4.322;2023-05-28T09:36:00;21.20;99.90
17128;DHT22;8679;50.842;4.322;2023-05-28T09:38:26;21.30;99.90
17128;DHT22;8679;50.842;4.322;2023-05-28T09:40:56;21.30;99.90
17128;DHT22;8679;50.842;4.322;2023-05-28T09:43:28;21.30;99.90
17128;DHT22;8679;50.842;4.322;2023-05-28T09:46:06;21.40;99.90
17128;DHT22;8679;50.842;4.322;2023-05-28T09:48:33;21.40;99.90
17128;DHT22;8679;50.842;4.322;2023-05-28T09:51:00;21.50;99.90
17128;DHT22;8679;50.842;4.322;2023-05-28T09:53:29;21.50;99.90
17128;DHT22;8679;50.842;4.322;2023-05-28T09:56:00;21.60;99.90
17128;DHT22;8679;50.842;4.322;2023-05-28T09:58:32;21.60;99.90
17128;DHT22;8679;50.842;4.322;2023-05-28T10:01:13;21.70;99.90
17128;DHT22;8679;50.842;4.322;2023-05-28T10:04:01;21.70;99.90
17128;DHT22;8679;50.842;4.322;2023-05-28T10:06:29;21.70;99.90
17128;DHT22;8679;50.842;4.322;2023-05-28T10:08:58;21.80;99.90
17128;DHT22;8679;50.842;4.322;2023-05-28T10:11:27;21.80;99.90
17128;DHT22;8679;50.842;4.322;2023-05-28T10:13:56;21.90;99.90
17128;DHT22;8679;50.842;4.322;2023-05-28T10:16:27;22.00;99.90
17128;DHT22;8679;50.842;4.322;2023-05-28T10:18:53;22.00;99.90
17128;DHT22;8679;50.842;4.322;2023-05-28T10:21:21;22.10;99.90
17128;DHT22;8679;50.842;4.322;2023-05-28T10:23:47;22.20;99.90
17128;DHT22;8679;50.842;4.322;2023-05-28T10:26:17;22.30;99.90
17128;DHT22;8679;50.842;4.322;2023-05-28T10:28:44;22.30;99.90
17128;DHT22;8679;50.842;4.322;2023-05-28T10:31:10;22.40;99.90
17128;DHT22;8679;50.842;4.322;2023-05-28T10:33:40;22.40;99.90
17128;DHT22;8679;50.842;4.322;2023-05-28T10:36:12;22.50;99.90
17128;DHT22;8679;50.842;4.322;2023-05-28T10:38:46;22.60;99.90
17128;DHT22;8679;50.842;4.322;2023-05-28T10:41:22;22.60;99.90
17128;DHT22;8679;50.842;4.322;2023-05-28T10:43:49;22.70;99.90
17128;DHT22;8679;50.842;4.322;2023-05-28T10:46:35;22.90;99.90
17128;DHT22;8679;50.842;4.322;2023-05-28T10:51:58;23.20;99.90
17128;DHT22;8679;50.842;4.322;2023-05-28T10:57:22;23.30;99.90
17128;DHT22;8679;50.842;4.322;2023-05-28T10:59:52;23.40;99.90
17128;DHT22;8679;50.842;4.322;2023-05-28T11:02:29;23.50;99.90
17128;DHT22;8679;50.842;4.322;2023-05-28T11:05:02;23.60;99.90
17128;DHT22;8679;50.842;4.322;2023-05-28T11:07:34;23.70;99.90
17128;DHT22;8679;50.842;4.322;2023-05-28T11:10:02;23.60;99.90
17128;DHT22;8679;50.842;4.322;2023-05-28T11:12:30;23.60;99.90
17128;DHT22;8679;50.842;4.322;2023-05-28T11:14:56;23.70;99.90
17128;DHT22;8679;50.842;4.322;2023-05-28T11:17:22;23.80;99.90
17128;DHT22;8679;50.842;4.322;2023-05-28T11:19:49;23.90;99.90
17128;DHT22;8679;50.842;4.322;2023-05-28T11:22:17;24.00;99.90
17128;DHT22;8679;50.842;4.322;2023-05-28T11:27:29;24.30;99.90
17128;DHT22;8679;50.842;4.322;2023-05-28T11:29:55;24.40;99.90
17128;DHT22;8679;50.842;4.322;2023-05-28T11:32:23;24.40;99.90
17128;DHT22;8679;50.842;4.322;2023-05-28T11:34:49;24.50;99.90
17128;DHT22;8679;50.842;4.322;2023-05-28T11:37:16;24.60;99.90
17128;DHT22;8679;50.842;4.322;2023-05-28T11:39:49;24.80;99.90
17128;DHT22;8679;50.842;4.322;2023-05-28T11:42:16;24.80;99.90
17128;DHT22;8679;50.842;4.322;2023-05-28T11:44:46;25.00;99.90
17128;DHT22;8679;50.842;4.322;2023-05-28T11:47:12;25.00;99.90
17128;DHT22;8679;50.842;4.322;2023-05-28T11:49:39;25.10;99.90
17128;DHT22;8679;50.842;4.322;2023-05-28T11:52:17;25.40;99.90
17128;DHT22;8679;50.842;4.322;2023-05-28T11:54:44;25.40;99.90
17128;DHT22;8679;50.842;4.322;2023-05-28T11:57:11;25.50;99.90
17128;DHT22;8679;50.842;4.322;2023-05-28T11:59:54;25.60;99.90
17128;DHT22;8679;50.842;4.322;2023-05-28T12:02:22;25.80;99.90
17128;DHT22;8679;50.842;4.322;2023-05-28T12:05:00;26.00;99.90
17128;DHT22;8679;50.842;4.322;2023-05-28T12:07:33;26.20;99.70
17128;DHT22;8679;50.842;4.322;2023-05-28T12:10:09;26.40;98.10
17128;DHT22;8679;50.842;4.322;2023-05-28T12:12:41;26.60;98.70
17128;DHT22;8679;50.842;4.322;2023-05-28T12:15:07;26.80;96.60
17128;DHT22;8679;50.842;4.322;2023-05-28T12:17:40;26.80;94.90
17128;DHT22;8679;50.842;4.322;2023-05-28T12:20:27;27.00;94.20
17128;DHT22;8679;50.842;4.322;2023-05-28T12:23:06;27.20;94.50
17128;DHT22;8679;50.842;4.322;2023-05-28T12:25:46;27.50;93.70
17128;DHT22;8679;50.842;4.322;2023-05-28T12:28:14;27.70;88.40
17128;DHT22;8679;50.842;4.322;2023-05-28T12:30:41;27.80;88.80
17128;DHT22;8679;50.842;4.322;2023-05-28T12:33:07;27.90;86.10
17128;DHT22;8679;50.842;4.322;2023-05-28T12:35:33;28.10;78.80
17128;DHT22;8679;50.842;4.322;2023-05-28T12:38:00;28.20;80.60
17128;DHT22;8679;50.842;4.322;2023-05-28T12:40:32;28.50;74.50
17128;DHT22;8679;50.842;4.322;2023-05-28T12:42:58;28.70;71.80
17128;DHT22;8679;50.842;4.322;2023-05-28T12:45:24;28.70;70.20
17128;DHT22;8679;50.842;4.322;2023-05-28T12:47:49;29.00;70.50
17128;DHT22;8679;50.842;4.322;2023-05-28T12:50:15;29.40;65.90
17128;DHT22;8679;50.842;4.322;2023-05-28T12:52:41;29.70;61.80
17128;DHT22;8679;50.842;4.322;2023-05-28T12:55:07;30.10;60.40
17128;DHT22;8679;50.842;4.322;2023-05-28T12:57:32;30.40;56.10
17128;DHT22;8679;50.842;4.322;2023-05-28T12:59:58;30.40;56.30
17128;DHT22;8679;50.842;4.322;2023-05-28T13:02:24;30.80;54.10
17128;DHT22;8679;50.842;4.322;2023-05-28T13:04:50;30.80;52.10
17128;DHT22;8679;50.842;4.322;2023-05-28T13:07:16;30.80;49.40
17128;DHT22;8679;50.842;4.322;2023-05-28T13:09:41;31.30;52.70
17128;DHT22;8679;50.842;4.322;2023-05-28T13:12:07;31.50;49.20
17128;DHT22;8679;50.842;4.322;2023-05-28T13:14:33;31.90;42.00
17128;DHT22;8679;50.842;4.322;2023-05-28T13:16:59;31.80;36.50
17128;DHT22;8679;50.842;4.322;2023-05-28T13:19:26;32.20;39.60
17128;DHT22;8679;50.842;4.322;2023-05-28T13:21:51;32.00;35.90
17128;DHT22;8679;50.842;4.322;2023-05-28T13:24:17;32.40;38.00
17128;DHT22;8679;50.842;4.322;2023-05-28T13:26:43;32.50;31.50
17128;DHT22;8679;50.842;4.322;2023-05-28T13:29:09;32.20;34.70
17128;DHT22;8679;50.842;4.322;2023-05-28T13:31:35;32.50;31.70
17128;DHT22;8679;50.842;4.322;2023-05-28T13:34:02;32.60;31.70
17128;DHT22;8679;50.842;4.322;2023-05-28T13:36:29;33.10;30.00
17128;DHT22;8679;50.842;4.322;2023-05-28T13:38:55;33.20;29.30
17128;DHT22;8679;50.842;4.322;2023-05-28T13:41:22;33.50;27.30
17128;DHT22;8679;50.842;4.322;2023-05-28T13:43:51;33.60;26.30
17128;DHT22;8679;50.842;4.322;2023-05-28T13:46:22;34.00;25.50
17128;DHT22;8679;50.842;4.322;2023-05-28T13:48:50;34.00;24.50
17128;DHT22;8679;50.842;4.322;2023-05-28T13:51:16;34.30;24.50
17128;DHT22;8679;50.842;4.322;2023-05-28T13:53:42;34.40;22.40
17128;DHT22;8679;50.842;4.322;2023-05-28T13:56:11;34.10;21.50
17128;DHT22;8679;50.842;4.322;2023-05-28T13:58:37;34.20;21.60
17128;DHT22;8679;50.842;4.322;2023-05-28T14:01:03;34.40;21.40
17128;DHT22;8679;50.842;4.322;2023-05-28T14:03:28;34.70;20.10
17128;DHT22;8679;50.842;4.322;2023-05-28T14:05:55;34.20;18.30
17128;DHT22;8679;50.842;4.322;2023-05-28T14:08:21;34.30;18.00
17128;DHT22;8679;50.842;4.322;2023-05-28T14:10:48;34.90;16.70
17128;DHT22;8679;50.842;4.322;2023-05-28T14:13:14;34.90;15.40
17128;DHT22;8679;50.842;4.322;2023-05-28T14:15:39;35.20;15.00
17128;DHT22;8679;50.842;4.322;2023-05-28T14:18:05;35.30;13.80
17128;DHT22;8679;50.842;4.322;2023-05-28T14:20:33;35.40;14.30
17128;DHT22;8679;50.842;4.322;2023-05-28T14:23:01;35.40;12.90
17128;DHT22;8679;50.842;4.322;2023-05-28T14:25:27;35.50;13.90
17128;DHT22;8679;50.842;4.322;2023-05-28T14:27:53;35.30;12.80
17128;DHT22;8679;50.842;4.322;2023-05-28T14:30:19;35.40;12.30
17128;DHT22;8679;50.842;4.322;2023-05-28T14:32:45;35.80;11.10
17128;DHT22;8679;50.842;4.322;2023-05-28T14:35:10;35.70;10.70
17128;DHT22;8679;50.842;4.322;2023-05-28T14:37:36;36.20;10.20
17128;DHT22;8679;50.842;4.322;2023-05-28T14:40:02;36.10;8.30
17128;DHT22;8679;50.842;4.322;2023-05-28T14:42:30;36.10;8.90
17128;DHT22;8679;50.842;4.322;2023-05-28T14:44:55;36.40;9.00
17128;DHT22;8679;50.842;4.322;2023-05-28T14:47:21;36.80;7.40
17128;DHT22;8679;50.842;4.322;2023-05-28T14:49:47;37.00;7.70
17128;DHT22;8679;50.842;4.322;2023-05-28T14:52:25;37.10;6.60
17128;DHT22;8679;50.842;4.322;2023-05-28T14:57:20;37.50;5.70
17128;DHT22;8679;50.842;4.322;2023-05-28T14:59:47;37.70;5.20
17128;DHT22;8679;50.842;4.322;2023-05-28T15:46:12;37.40;4.80
17128;DHT22;8679;50.842;4.322;2023-05-28T15:48:37;39.40;1.00
17128;DHT22;8679;50.842;4.322;2023-05-28T15:51:03;39.50;1.00
17128;DHT22;8679;50.842;4.322;2023-05-28T15:53:31;39.00;1.00
17128;DHT22;8679;50.842;4.322;2023-05-28T15:55:58;38.90;1.00
17128;DHT22;8679;50.842;4.322;2023-05-28T15:58:29;38.80;1.00
17128;DHT22;8679;50.842;4.322;2023-05-28T16:00:56;39.00;1.00
17128;DHT22;8679;50.842;4.322;2023-05-28T16:03:22;38.80;1.00
17128;DHT22;8679;50.842;4.322;2023-05-28T16:05:49;38.80;1.00
17128;DHT22;8679;50.842;4.322;2023-05-28T16:08:15;38.90;1.00
17128;DHT22;8679;50.842;4.322;2023-05-28T16:10:41;39.40;1.00
17128;DHT22;8679;50.842;4.322;2023-05-28T16:13:08;39.30;1.00
17128;DHT22;8679;50.842;4.322;2023-05-28T16:15:38;39.70;1.00
17128;DHT22;8679;50.842;4.322;2023-05-28T16:18:06;39.70;1.00
17128;DHT22;8679;50.842;4.322;2023-05-28T16:20:33;39.90;1.00
17128;DHT22;8679;50.842;4.322;2023-05-28T16:23:00;39.60;1.00
17128;DHT22;8679;50.842;4.322;2023-05-28T16:25:26;39.80;1.00
17128;DHT22;8679;50.842;4.322;2023-05-28T16:27:53;39.90;1.00
17128;DHT22;8679;50.842;4.322;2023-05-28T16:30:20;40.10;1.00
17128;DHT22;8679;50.842;4.322;2023-05-28T16:32:47;40.20;1.00
17128;DHT22;8679;50.842;4.322;2023-05-28T16:35:13;40.20;1.00
17128;DHT22;8679;50.842;4.322;2023-05-28T16:37:39;40.20;1.00
17128;DHT22;8679;50.842;4.322;2023-05-28T16:40:06;40.10;1.00
17128;DHT22;8679;50.842;4.322;2023-05-28T16:42:36;40.30;1.00